Time;durP1;ratioP1;P1;durP2;ratioP2;P2;SDS_P1;SDS_P2;PMS_P1;PMS_P2;Temp;Humidity;BMP_temperature;BMP_pressure;BME280_temperature;BME280_humidity;BME280_pressure;Samples;Min_cycle;Max_cycle;Signal;HPM_P1;HPM_P2
2021/06/28 00:01:14;;;;;;;44.60;27.77;;;18.70;99.90;;;;;;5034051;28;20550;-58
2021/06/28 00:03:42;;;;;;;46.28;27.35;;;18.60;99.90;;;;;;5009502;28;20057;-63
2021/06/28 00:06:08;;;;;;;43.70;27.08;;;18.60;99.90;;;;;;5027084;28;20247;-59
2021/06/28 00:08:35;;;;;;;43.88;27.42;;;18.50;99.90;;;;;;5021256;28;20064;-60
2021/06/28 00:11:01;;;;;;;43.30;27.27;;;18.50;99.90;;;;;;5004343;28;20101;-59
2021/06/28 00:13:26;;;;;;;37.53;26.55;;;18.50;99.90;;;;;;5028277;28;20068;-61
2021/06/28 00:15:52;;;;;;;42.35;27.67;;;18.40;99.90;;;;;;5049246;28;20095;-62
2021/06/28 00:18:19;;;;;;;41.40;27.30;;;18.40;99.90;;;;;;5035655;28;20431;-61
2021/06/28 00:20:46;;;;;;;37.95;24.80;;;18.40;99.90;;;;;;5027444;28;20040;-59
2021/06/28 00:23:12;;;;;;;41.33;26.50;;;18.40;99.90;;;;;;5028611;28;20369;-58
2021/06/28 00:25:38;;;;;;;38.13;25.00;;;18.40;99.90;;;;;;5013266;28;20067;-57
2021/06/28 00:28:05;;;;;;;37.92;26.13;;;18.40;99.90;;;;;;5035937;28;20033;-60
2021/06/28 00:30:42;;;;;;;38.35;26.15;;;18.30;99.90;;;;;;5012892;28;20017;-61
2021/06/28 00:33:18;;;;;;;42.88;25.27;;;18.30;99.90;;;;;;5033847;28;20029;-58
2021/06/28 00:35:44;;;;;;;42.85;26.63;;;18.30;99.90;;;;;;5020075;28;20549;-59
2021/06/28 00:38:10;;;;;;;44.35;27.45;;;18.20;99.90;;;;;;5029403;28;20028;-61
2021/06/28 00:40:37;;;;;;;42.17;27.50;;;18.20;99.90;;;;;;5041573;28;20031;-59
2021/06/28 00:43:03;;;;;;;41.95;25.67;;;18.20;99.90;;;;;;5026226;28;20036;-59
2021/06/28 00:45:32;;;;;;;43.28;26.80;;;18.20;99.90;;;;;;5051567;28;20808;-60
2021/06/28 00:48:05;;;;;;;41.20;25.40;;;18.20;99.90;;;;;;5048908;28;20037;-57
2021/06/28 00:50:33;;;;;;;51.90;27.75;;;18.10;99.90;;;;;;5052371;28;20399;-63
2021/06/28 00:53:05;;;;;;;44.15;27.85;;;18.10;99.90;;;;;;5056006;28;20033;-61
2021/06/28 00:55:31;;;;;;;41.50;25.88;;;18.10;99.90;;;;;;5048881;28;20040;-59
2021/06/28 00:57:57;;;;;;;44.00;26.27;;;18.10;99.90;;;;;;5012701;28;20067;-59
2021/06/28 01:00:23;;;;;;;51.30;27.90;;;18.00;99.90;;;;;;5050672;28;20021;-62
2021/06/28 01:02:49;;;;;;;40.15;27.27;;;18.00;99.90;;;;;;5047490;28;20533;-59
2021/06/28 01:05:18;;;;;;;44.22;28.50;;;18.00;99.90;;;;;;5054935;28;20032;-60
2021/06/28 01:07:44;;;;;;;44.30;27.45;;;17.90;99.90;;;;;;5032629;28;20021;-62
2021/06/28 01:10:11;;;;;;;48.63;27.73;;;17.90;99.90;;;;;;5027773;28;20064;-61
2021/06/28 01:12:37;;;;;;;41.60;25.48;;;17.90;99.90;;;;;;5046525;28;20045;-60
2021/06/28 01:15:05;;;;;;;40.45;25.98;;;17.90;99.90;;;;;;5005142;28;20543;-62
2021/06/28 01:17:31;;;;;;;36.88;24.70;;;17.90;99.90;;;;;;5045991;28;20074;-63
2021/06/28 01:20:02;;;;;;;36.70;25.92;;;17.90;99.90;;;;;;5031920;28;20407;-62
2021/06/28 01:22:32;;;;;;;41.58;26.58;;;17.90;99.90;;;;;;5047735;28;20048;-60
2021/06/28 01:24:59;;;;;;;40.58;24.52;;;17.90;99.90;;;;;;5046853;28;20017;-59
2021/06/28 01:27:26;;;;;;;43.15;25.88;;;17.80;99.90;;;;;;5050546;28;20025;-62
2021/06/28 01:29:53;;;;;;;41.63;25.67;;;17.80;99.90;;;;;;5047784;28;20055;-59
2021/06/28 01:32:20;;;;;;;40.33;25.67;;;17.80;99.90;;;;;;5051690;28;20108;-58
2021/06/28 01:34:45;;;;;;;36.60;22.90;;;17.80;99.90;;;;;;5051946;28;20021;-60
2021/06/28 01:37:23;;;;;;;30.83;21.85;;;17.80;99.90;;;;;;5049734;28;20052;-62
2021/06/28 01:39:51;;;;;;;46.33;25.33;;;17.90;99.90;;;;;;5032809;28;20029;-58
2021/06/28 01:42:17;;;;;;;41.63;25.63;;;17.80;99.90;;;;;;5034361;28;20024;-57
2021/06/28 01:44:42;;;;;;;41.17;24.63;;;17.80;99.90;;;;;;5049955;28;20029;-59
2021/06/28 01:47:08;;;;;;;40.67;25.05;;;17.80;99.90;;;;;;5017299;28;20108;-60
2021/06/28 01:49:34;;;;;;;46.08;25.85;;;17.80;99.90;;;;;;5018710;28;20033;-61
2021/06/28 01:51:59;;;;;;;47.33;26.17;;;17.70;99.90;;;;;;5017095;28;20109;-59
2021/06/28 01:54:29;;;;;;;40.42;25.83;;;17.70;99.90;;;;;;5049555;28;20033;-59
2021/06/28 01:56:55;;;;;;;38.55;24.52;;;17.70;99.90;;;;;;5029745;28;20032;-61
2021/06/28 01:59:25;;;;;;;46.45;25.88;;;17.70;99.90;;;;;;5034953;28;20025;-62
2021/06/28 02:01:51;;;;;;;41.70;26.42;;;17.60;99.90;;;;;;5054834;28;20471;-60
2021/06/28 02:04:18;;;;;;;41.38;26.75;;;17.60;99.90;;;;;;5036150;28;20024;-62
2021/06/28 02:06:43;;;;;;;43.40;25.30;;;17.70;99.90;;;;;;5015716;28;20028;-59
2021/06/28 02:09:09;;;;;;;34.60;24.05;;;17.70;99.90;;;;;;5046402;28;20025;-60
2021/06/28 02:11:34;;;;;;;38.15;24.70;;;17.70;99.90;;;;;;5057277;28;20029;-58
2021/06/28 02:14:00;;;;;;;34.05;23.83;;;17.70;99.90;;;;;;5049971;28;20467;-64
2021/06/28 02:16:25;;;;;;;42.65;25.50;;;17.60;99.90;;;;;;5050240;28;20032;-58
2021/06/28 02:18:51;;;;;;;42.92;25.77;;;17.70;99.90;;;;;;5049834;28;20057;-60
2021/06/28 02:21:16;;;;;;;39.72;25.98;;;17.60;99.90;;;;;;5029870;28;20049;-58
2021/06/28 02:23:42;;;;;;;42.45;25.33;;;17.60;99.90;;;;;;5028718;28;20025;-58
2021/06/28 02:26:10;;;;;;;43.17;25.10;;;17.50;99.90;;;;;;5018930;28;20040;-60
2021/06/28 02:28:38;;;;;;;39.97;25.20;;;17.50;99.90;;;;;;5051772;28;20039;-62
2021/06/28 02:31:05;;;;;;;39.08;25.80;;;17.50;99.90;;;;;;5027195;28;20066;-62
2021/06/28 02:33:32;;;;;;;45.58;28.45;;;17.40;99.90;;;;;;5045684;28;20484;-57
2021/06/28 02:35:58;;;;;;;41.28;26.20;;;17.40;99.90;;;;;;5050099;28;20028;-60
2021/06/28 02:38:24;;;;;;;43.63;25.88;;;17.40;99.90;;;;;;5043202;28;20090;-61
2021/06/28 02:40:51;;;;;;;36.22;23.00;;;17.40;99.90;;;;;;5023596;28;20028;-61
2021/06/28 02:43:17;;;;;;;34.78;22.90;;;17.40;99.90;;;;;;5033157;28;20028;-62
2021/06/28 02:45:43;;;;;;;33.72;23.50;;;17.40;99.90;;;;;;5057325;28;20029;-61
2021/06/28 02:48:09;;;;;;;32.83;22.95;;;17.40;99.90;;;;;;5049227;28;20025;-63
2021/06/28 02:50:35;;;;;;;40.83;23.60;;;17.30;99.90;;;;;;5052581;28;20083;-62
2021/06/28 02:53:00;;;;;;;34.67;23.45;;;17.30;99.90;;;;;;5030752;28;20031;-62
2021/06/28 02:55:26;;;;;;;36.92;23.33;;;17.30;99.90;;;;;;5048289;28;20439;-61
2021/06/28 02:57:51;;;;;;;36.50;22.42;;;17.30;99.90;;;;;;5037531;28;20051;-62
2021/06/28 03:00:18;;;;;;;35.25;23.00;;;17.40;99.90;;;;;;5033457;28;20446;-60
2021/06/28 03:02:44;;;;;;;41.78;24.08;;;17.40;99.90;;;;;;5054537;28;20032;-61
2021/06/28 03:05:10;;;;;;;37.85;22.90;;;17.30;99.90;;;;;;5048897;28;20044;-62
2021/06/28 03:07:37;;;;;;;35.33;21.85;;;17.30;99.90;;;;;;5034487;28;20542;-61
2021/06/28 03:10:06;;;;;;;36.65;23.45;;;17.20;99.90;;;;;;5039672;28;20029;-61
2021/06/28 03:12:32;;;;;;;35.50;23.60;;;17.20;99.90;;;;;;5096675;22;20394;-59
2021/06/28 03:14:57;;;;;;;47.60;25.25;;;17.20;99.90;;;;;;5078812;28;20032;-59
2021/06/28 03:17:23;;;;;;;35.65;23.67;;;17.20;99.90;;;;;;5091193;28;20100;-58
2021/06/28 03:19:49;;;;;;;41.50;25.27;;;17.20;99.90;;;;;;5076244;28;20035;-57
2021/06/28 03:22:18;;;;;;;38.20;23.27;;;17.10;99.90;;;;;;5085658;27;20384;-59
2021/06/28 03:24:44;;;;;;;37.90;24.98;;;17.10;99.90;;;;;;5094924;27;20023;-55
2021/06/28 03:27:10;;;;;;;33.78;24.33;;;17.10;99.90;;;;;;5058278;28;20028;-57
2021/06/28 03:29:36;;;;;;;44.30;26.05;;;17.10;99.90;;;;;;5116057;27;20024;-56
2021/06/28 03:32:02;;;;;;;41.03;26.65;;;17.00;99.90;;;;;;5092415;28;20373;-57
2021/06/28 03:34:28;;;;;;;37.67;23.25;;;17.00;99.90;;;;;;5075553;27;20451;-54
2021/06/28 03:36:54;;;;;;;37.00;22.75;;;17.10;99.90;;;;;;5095402;27;20411;-56
2021/06/28 03:39:19;;;;;;;32.50;22.95;;;17.10;99.90;;;;;;5093120;28;20394;-60
2021/06/28 03:41:45;;;;;;;35.47;23.40;;;17.20;99.90;;;;;;5109839;27;20106;-57
2021/06/28 03:44:10;;;;;;;34.38;22.83;;;17.10;99.90;;;;;;5092696;28;20028;-56
2021/06/28 03:46:36;;;;;;;36.22;23.42;;;17.10;99.90;;;;;;5111353;28;20381;-57
2021/06/28 03:49:03;;;;;;;39.33;24.45;;;17.00;99.90;;;;;;5095313;27;20023;-58
2021/06/28 03:51:29;;;;;;;35.20;23.23;;;17.10;99.90;;;;;;5092788;28;20031;-57
2021/06/28 03:53:54;;;;;;;39.58;24.15;;;17.10;99.90;;;;;;5094889;27;20023;-57
2021/06/28 03:56:20;;;;;;;37.47;24.10;;;17.10;99.90;;;;;;5092366;28;20028;-59
2021/06/28 03:58:46;;;;;;;37.60;23.33;;;17.00;99.90;;;;;;5092696;28;20027;-57
2021/06/28 04:01:11;;;;;;;38.05;22.77;;;17.10;99.90;;;;;;5095183;27;20049;-57
2021/06/28 04:03:38;;;;;;;36.58;22.38;;;17.20;99.90;;;;;;5094649;27;20039;-58
2021/06/28 04:06:08;;;;;;;36.22;22.52;;;17.20;99.90;;;;;;5102048;27;20035;-54
2021/06/28 04:08:35;;;;;;;38.65;23.85;;;17.30;99.90;;;;;;5093837;27;20037;-57
2021/06/28 04:11:01;;;;;;;37.35;22.83;;;17.30;99.90;;;;;;5103352;27;20027;-58
2021/06/28 04:13:28;;;;;;;37.15;23.50;;;17.30;99.90;;;;;;5075494;28;20567;-59
2021/06/28 04:15:53;;;;;;;32.67;22.30;;;17.30;99.90;;;;;;5074819;28;20064;-58
2021/06/28 04:18:19;;;;;;;35.72;22.63;;;17.30;99.90;;;;;;5099539;27;20024;-59
2021/06/28 04:20:45;;;;;;;34.75;23.50;;;17.40;99.90;;;;;;5092671;27;20051;-57
2021/06/28 04:23:11;;;;;;;40.47;24.83;;;17.50;99.90;;;;;;5097781;27;20429;-56
2021/06/28 04:25:36;;;;;;;40.92;25.08;;;17.50;99.90;;;;;;5081631;28;20149;-57
2021/06/28 04:28:03;;;;;;;44.35;28.50;;;17.50;99.90;;;;;;5076567;28;20518;-57
2021/06/28 04:30:29;;;;;;;42.05;25.45;;;17.50;99.90;;;;;;5100218;28;20570;-58
2021/06/28 04:32:54;;;;;;;45.28;25.35;;;17.50;99.90;;;;;;5093553;28;20126;-58
2021/06/28 04:35:24;;;;;;;44.65;25.75;;;17.50;99.90;;;;;;5091968;28;20027;-58
2021/06/28 04:37:50;;;;;;;38.50;25.15;;;17.50;99.90;;;;;;5074570;28;20478;-57
2021/06/28 04:40:19;;;;;;;43.33;24.65;;;17.50;99.90;;;;;;5066598;28;20023;-58
2021/06/28 04:42:45;;;;;;;41.22;26.33;;;17.60;99.90;;;;;;5085825;28;20020;-56
2021/06/28 04:45:12;;;;;;;47.95;27.42;;;17.70;99.90;;;;;;5074079;28;20410;-55
2021/06/28 04:47:38;;;;;;;46.40;28.58;;;17.70;99.90;;;;;;5091626;28;20094;-59
2021/06/28 04:50:06;;;;;;;48.05;27.02;;;17.80;99.90;;;;;;5096732;27;20055;-59
2021/06/28 04:52:33;;;;;;;57.20;31.67;;;17.80;99.90;;;;;;5075404;28;20032;-58
2021/06/28 04:55:08;;;;;;;67.13;36.42;;;17.80;99.90;;;;;;5069527;28;20059;-60
2021/06/28 04:57:34;;;;;;;;;;;17.90;99.90;;;;;;5091295;28;20020;-56
2021/06/28 04:59:59;;;;;;;65.72;36.20;;;18.00;99.90;;;;;;5074618;28;20450;-58
2021/06/28 05:02:25;;;;;;;75.32;38.95;;;18.00;99.90;;;;;;5096533;28;20487;-58
2021/06/28 05:04:51;;;;;;;76.93;40.40;;;18.10;99.90;;;;;;5097707;27;20059;-58
2021/06/28 05:07:17;;;;;;;101.90;45.75;;;18.20;99.90;;;;;;5080490;27;20027;-59
2021/06/28 05:09:44;;;;;;;106.03;46.90;;;18.30;99.90;;;;;;5100196;27;20094;-60
2021/06/28 05:12:11;;;;;;;96.80;46.00;;;18.40;99.90;;;;;;5078270;28;20042;-61
2021/06/28 05:14:38;;;;;;;93.22;45.90;;;18.50;99.90;;;;;;5091200;28;20352;-60
2021/06/28 05:17:05;;;;;;;93.97;46.67;;;18.50;99.90;;;;;;5091678;27;20409;-61
2021/06/28 05:19:30;;;;;;;100.47;50.40;;;18.60;99.90;;;;;;5118295;27;20030;-62
2021/06/28 05:21:56;;;;;;;103.05;50.15;;;18.60;99.90;;;;;;5090807;28;20508;-59
2021/06/28 05:24:21;;;;;;;107.25;51.95;;;18.70;99.90;;;;;;5106151;28;20232;-62
2021/06/28 05:26:47;;;;;;;100.97;53.10;;;18.70;99.90;;;;;;5090751;27;20028;-58
2021/06/28 05:29:12;;;;;;;114.85;57.60;;;18.80;99.90;;;;;;5103615;27;20020;-61
2021/06/28 05:31:38;;;;;;;103.60;51.97;;;18.80;99.90;;;;;;5109592;27;20035;-61
2021/06/28 05:34:04;;;;;;;110.35;56.50;;;18.90;99.90;;;;;;5089600;28;20022;-61
2021/06/28 05:36:29;;;;;;;99.53;53.97;;;18.90;99.90;;;;;;5103745;27;20030;-60
2021/06/28 05:38:55;;;;;;;106.45;54.47;;;19.00;99.90;;;;;;5122960;27;20036;-61
2021/06/28 05:41:21;;;;;;;94.93;54.50;;;19.10;99.90;;;;;;5107032;27;20052;-60
2021/06/28 05:43:47;;;;;;;92.22;52.33;;;19.10;99.90;;;;;;5085609;28;20153;-60
2021/06/28 05:46:13;;;;;;;92.35;50.55;;;19.10;99.90;;;;;;5091262;27;20043;-61
2021/06/28 05:48:38;;;;;;;89.63;50.30;;;19.20;99.90;;;;;;5108703;27;20107;-59
2021/06/28 05:51:04;;;;;;;76.35;46.13;;;19.30;99.90;;;;;;5072212;28;20501;-58
2021/06/28 05:53:30;;;;;;;83.90;48.33;;;19.30;99.90;;;;;;5101065;28;20042;-62
2021/06/28 05:55:58;;;;;;;78.05;45.83;;;19.40;99.90;;;;;;5092241;27;20038;-60
2021/06/28 05:58:25;;;;;;;74.45;48.58;;;19.40;99.90;;;;;;5088106;28;20043;-60
2021/06/28 06:00:51;;;;;;;71.28;48.10;;;19.50;99.90;;;;;;5089608;28;20027;-58
2021/06/28 06:03:17;;;;;;;78.30;48.28;;;19.60;99.90;;;;;;5090359;28;20031;-60
2021/06/28 06:05:43;;;;;;;67.93;46.08;;;19.60;99.90;;;;;;5087888;28;20034;-59
2021/06/28 06:08:08;;;;;;;65.75;45.38;;;19.70;99.90;;;;;;5105489;28;20474;-60
2021/06/28 06:10:34;;;;;;;77.05;45.90;;;19.70;99.90;;;;;;5109470;28;20020;-60
2021/06/28 06:12:59;;;;;;;68.85;45.92;;;19.70;99.90;;;;;;5101874;27;20088;-61
2021/06/28 06:15:25;;;;;;;80.30;52.05;;;19.70;99.90;;;;;;5103433;28;20320;-61
2021/06/28 06:17:51;;;;;;;70.80;48.67;;;19.70;99.90;;;;;;5087090;28;20461;-63
2021/06/28 06:20:16;;;;;;;71.60;45.90;;;19.70;99.90;;;;;;5106226;28;20019;-61
2021/06/28 06:22:42;;;;;;;59.78;41.05;;;19.70;99.90;;;;;;5090380;28;20499;-60
2021/06/28 06:25:08;;;;;;;74.07;46.92;;;19.80;99.90;;;;;;5087501;28;20028;-61
2021/06/28 06:27:34;;;;;;;83.00;50.53;;;19.80;99.90;;;;;;5109256;28;20034;-60
2021/06/28 06:30:00;;;;;;;84.05;53.95;;;19.80;99.90;;;;;;5091108;28;20028;-62
2021/06/28 06:32:25;;;;;;;90.35;55.88;;;19.70;99.90;;;;;;5092024;28;20032;-63
2021/06/28 06:34:51;;;;;;;92.05;55.53;;;19.70;99.90;;;;;;5107758;28;20039;-59
2021/06/28 06:37:17;;;;;;;87.75;55.42;;;19.70;99.90;;;;;;5110358;28;20028;-61
2021/06/28 06:39:43;;;;;;;83.45;53.78;;;19.70;99.90;;;;;;5091763;28;20479;-61
2021/06/28 06:42:08;;;;;;;100.40;57.55;;;19.70;99.90;;;;;;5104805;28;20392;-60
2021/06/28 06:44:34;;;;;;;84.20;52.80;;;19.80;99.90;;;;;;5108703;28;20035;-60
2021/06/28 06:47:00;;;;;;;49.95;35.88;;;19.90;99.90;;;;;;5092268;27;20107;-60
2021/06/28 06:49:26;;;;;;;55.83;33.90;;;19.80;99.90;;;;;;5112736;27;20046;-58
2021/06/28 06:51:52;;;;;;;49.05;31.83;;;19.80;99.90;;;;;;5089091;28;20059;-61
2021/06/28 06:54:18;;;;;;;52.90;33.42;;;19.80;99.90;;;;;;5094126;28;20054;-60
2021/06/28 06:56:44;;;;;;;46.97;32.40;;;19.80;99.90;;;;;;5093727;27;20517;-59
2021/06/28 06:59:09;;;;;;;41.70;30.95;;;19.80;99.90;;;;;;5087366;28;20035;-60
2021/06/28 07:01:37;;;;;;;53.05;32.30;;;19.80;99.90;;;;;;5103474;27;20024;-61
2021/06/28 07:04:03;;;;;;;43.90;31.48;;;19.70;99.90;;;;;;5078924;27;20495;-56
2021/06/28 07:06:28;;;;;;;46.03;32.50;;;19.80;99.90;;;;;;5066894;28;20036;-62
2021/06/28 07:08:54;;;;;;;44.15;31.52;;;19.80;99.90;;;;;;5095055;28;20499;-61
2021/06/28 07:11:20;;;;;;;49.78;29.77;;;19.90;99.90;;;;;;5077150;28;20507;-63
2021/06/28 07:13:50;;;;;;;41.58;30.98;;;20.00;99.90;;;;;;5097486;27;20118;-60
2021/06/28 07:16:17;;;;;;;44.45;29.35;;;20.00;99.90;;;;;;5106792;27;20030;-60
2021/06/28 07:18:43;;;;;;;49.58;30.10;;;20.10;99.90;;;;;;5098144;28;20072;-60
2021/06/28 07:21:09;;;;;;;37.25;26.83;;;20.30;99.90;;;;;;5112351;27;20028;-60
2021/06/28 07:23:34;;;;;;;37.08;26.75;;;20.40;99.90;;;;;;5074674;28;20031;-61
2021/06/28 07:26:00;;;;;;;32.60;25.17;;;20.40;99.90;;;;;;5119042;27;20024;-61
2021/06/28 07:28:28;;;;;;;36.35;26.77;;;20.40;99.90;;;;;;5116607;27;20020;-60
2021/06/28 07:30:57;;;;;;;31.52;24.30;;;20.40;99.90;;;;;;5115538;27;20016;-62
2021/06/28 07:33:23;;;;;;;33.60;24.73;;;20.40;99.90;;;;;;5114285;27;20015;-60
2021/06/28 07:35:49;;;;;;;33.97;22.17;;;20.40;99.90;;;;;;5117648;27;20035;-61
2021/06/28 07:38:14;;;;;;;31.83;24.35;;;20.50;99.90;;;;;;5114390;27;20031;-59
2021/06/28 07:40:40;;;;;;;32.20;22.25;;;20.60;99.90;;;;;;5107498;27;20050;-60
2021/06/28 07:43:05;;;;;;;39.97;23.65;;;20.60;99.90;;;;;;5104490;27;20100;-60
2021/06/28 07:45:31;;;;;;;30.02;23.95;;;20.60;99.90;;;;;;5109228;27;20044;-60
2021/06/28 07:47:58;;;;;;;28.95;23.17;;;20.70;99.90;;;;;;5099360;28;20047;-58
2021/06/28 07:50:23;;;;;;;32.67;23.42;;;20.80;99.90;;;;;;5098902;28;20447;-60
2021/06/28 07:52:49;;;;;;;33.55;23.65;;;20.80;99.90;;;;;;5098153;27;20481;-60
2021/06/28 07:55:15;;;;;;;32.13;23.20;;;20.90;99.90;;;;;;5094398;28;20120;-57
2021/06/28 07:57:41;;;;;;;35.28;24.70;;;21.00;99.90;;;;;;5096280;28;20391;-62
2021/06/28 08:00:09;;;;;;;31.52;25.27;;;21.20;99.90;;;;;;5109957;27;20028;-61
2021/06/28 08:02:35;;;;;;;31.38;24.90;;;21.30;99.90;;;;;;5112450;27;20024;-61
2021/06/28 08:05:02;;;;;;;30.70;24.33;;;21.40;99.90;;;;;;5112878;27;20061;-60
2021/06/28 08:07:28;;;;;;;31.17;21.80;;;21.60;99.90;;;;;;5094115;28;20043;-60
2021/06/28 08:09:54;;;;;;;33.75;24.30;;;21.70;99.90;;;;;;5076489;28;20015;-59
2021/06/28 08:12:19;;;;;;;32.22;24.38;;;21.90;99.90;;;;;;5110308;27;20478;-55
2021/06/28 08:14:45;;;;;;;30.75;22.90;;;22.10;99.90;;;;;;5111862;27;20378;-57
2021/06/28 08:17:11;;;;;;;29.85;22.85;;;22.20;99.90;;;;;;5111541;27;20489;-62
2021/06/28 08:19:36;;;;;;;29.42;22.80;;;22.30;99.90;;;;;;5112540;27;20108;-59
2021/06/28 08:22:03;;;;;;;29.67;22.40;;;22.30;99.90;;;;;;5109851;28;20564;-60
2021/06/28 08:24:28;;;;;;;29.02;19.17;;;22.40;99.90;;;;;;5110236;27;20024;-57
2021/06/28 08:26:54;;;;;;;28.35;20.02;;;22.50;99.90;;;;;;5113972;27;20513;-56
2021/06/28 08:29:20;;;;;;;28.55;18.60;;;22.60;99.90;;;;;;5112357;27;20529;-59
2021/06/28 08:31:46;;;;;;;28.50;19.20;;;22.60;99.90;;;;;;5112106;27;20673;-62
2021/06/28 08:34:13;;;;;;;24.23;18.40;;;22.60;99.90;;;;;;5108930;27;20012;-62
2021/06/28 08:36:40;;;;;;;29.35;17.98;;;22.60;99.90;;;;;;5113542;27;20042;-60
2021/06/28 08:39:06;;;;;;;28.33;18.52;;;22.60;99.90;;;;;;5111405;27;20026;-58
2021/06/28 08:41:32;;;;;;;22.35;16.90;;;22.60;99.90;;;;;;5112759;27;20015;-62
2021/06/28 08:43:58;;;;;;;18.52;14.48;;;22.80;99.90;;;;;;5111430;28;20052;-62
2021/06/28 08:46:24;;;;;;;19.38;15.63;;;23.00;99.90;;;;;;5122175;27;20246;-61
2021/06/28 08:48:49;;;;;;;18.42;14.27;;;23.30;99.90;;;;;;5126891;27;20037;-63
2021/06/28 08:51:16;;;;;;;17.48;14.55;;;23.40;99.90;;;;;;5119984;27;20024;-62
2021/06/28 08:53:42;;;;;;;17.90;13.77;;;23.60;99.90;;;;;;5112127;28;20030;-63
2021/06/28 08:56:08;;;;;;;16.98;13.75;;;23.80;99.90;;;;;;5111254;27;20023;-64
2021/06/28 08:58:37;;;;;;;20.05;14.20;;;23.90;99.90;;;;;;5112215;27;20019;-63
2021/06/28 09:01:04;;;;;;;17.13;12.70;;;23.90;99.90;;;;;;5124379;27;20059;-63
2021/06/28 09:03:30;;;;;;;16.90;13.20;;;24.10;99.90;;;;;;5111990;27;20020;-63
2021/06/28 09:06:06;;;;;;;19.65;14.07;;;24.00;99.90;;;;;;5112008;27;20031;-62
2021/06/28 09:08:35;;;;;;;17.65;13.68;;;24.10;99.90;;;;;;5074771;28;20421;-64
2021/06/28 09:11:02;;;;;;;17.58;13.10;;;24.20;99.90;;;;;;5076015;27;20023;-63
2021/06/28 09:13:42;;;;;;;19.80;12.98;;;24.40;99.90;;;;;;5116225;22;20538;-63
2021/06/28 09:16:17;;;;;;;20.08;12.60;;;24.40;99.90;;;;;;5089449;28;20035;-63
2021/06/28 09:19:13;;;;;;;17.52;13.18;;;24.50;99.90;;;;;;5085985;28;20640;-63
2021/06/28 09:21:39;;;;;;;17.70;12.98;;;24.70;99.90;;;;;;5090240;28;20032;-64
2021/06/28 09:24:21;;;;;;;17.98;12.10;;;24.80;99.90;;;;;;5091554;28;20055;-63
2021/06/28 09:26:47;;;;;;;19.10;14.02;;;24.90;99.90;;;;;;5075009;28;20031;-64
2021/06/28 09:29:12;;;;;;;19.17;13.32;;;25.20;99.90;;;;;;5073985;28;20020;-63
2021/06/28 09:31:43;;;;;;;18.15;12.75;;;25.40;99.90;;;;;;5073100;28;20134;-64
2021/06/28 09:34:17;;;;;;;15.93;11.00;;;25.60;99.90;;;;;;5077287;28;20438;-65
2021/06/28 09:36:47;;;;;;;15.07;12.75;;;25.80;99.90;;;;;;5076199;28;20027;-64
2021/06/28 09:39:21;;;;;;;16.27;12.52;;;25.70;99.90;;;;;;5111238;28;20556;-64
2021/06/28 09:41:47;;;;;;;17.35;12.95;;;25.50;99.90;;;;;;5086703;28;20034;-64
2021/06/28 09:44:13;;;;;;;15.10;11.10;;;25.60;99.90;;;;;;5091095;28;20028;-65
2021/06/28 09:46:39;;;;;;;29.13;14.65;;;25.60;99.90;;;;;;5056664;28;20024;-64
2021/06/28 09:49:06;;;;;;;14.52;12.45;;;25.80;99.90;;;;;;5069708;28;20031;-64
2021/06/28 09:51:35;;;;;;;18.17;12.43;;;25.90;99.90;;;;;;5063093;28;20024;-64
2021/06/28 09:54:07;;;;;;;19.08;12.43;;;26.00;99.90;;;;;;5110058;28;20044;-62
2021/06/28 09:56:47;;;;;;;16.95;14.10;;;25.90;99.90;;;;;;5108419;28;20023;-65
2021/06/28 09:59:32;;;;;;;16.17;13.18;;;25.70;99.90;;;;;;5109316;28;20062;-64
2021/06/28 10:02:16;;;;;;;15.70;12.13;;;25.60;99.90;;;;;;5101549;28;20428;-63
2021/06/28 10:07:34;;;;;;;15.40;12.68;;;25.70;99.90;;;;;;5086761;28;20405;-63
2021/06/28 10:10:14;;;;;;;15.23;11.55;;;25.80;99.90;;;;;;5110078;28;20421;-64
2021/06/28 10:12:46;;;;;;;13.77;11.45;;;26.10;99.90;;;;;;5088674;28;20020;-65
2021/06/28 10:15:15;;;;;;;13.18;10.40;;;26.50;99.90;;;;;;5100336;28;20027;-64
2021/06/28 10:17:42;;;;;;;11.52;9.57;;;27.00;99.90;;;;;;5079579;28;20344;-64
2021/06/28 10:20:12;;;;;;;13.65;11.07;;;27.30;99.90;;;;;;5092126;28;20050;-65
2021/06/28 10:22:39;;;;;;;14.23;10.52;;;27.70;99.90;;;;;;5102779;28;20019;-65
2021/06/28 10:25:07;;;;;;;12.27;8.88;;;27.70;99.90;;;;;;5081082;28;20399;-65
2021/06/28 10:27:34;;;;;;;12.77;8.73;;;28.00;99.90;;;;;;5089779;28;20024;-65
2021/06/28 10:30:00;;;;;;;11.48;9.68;;;28.20;99.90;;;;;;5073363;28;20053;-64
2021/06/28 10:32:29;;;;;;;12.95;8.80;;;28.10;99.90;;;;;;5041548;28;20090;-65
2021/06/28 10:34:55;;;;;;;10.88;9.50;;;27.50;99.90;;;;;;5065741;28;20366;-65
2021/06/28 10:37:47;;;;;;;13.98;8.93;;;27.20;99.90;;;;;;5072022;28;20099;-65
2021/06/28 10:40:22;;;;;;;9.35;8.48;;;26.90;99.90;;;;;;5089515;28;20028;-64
2021/06/28 10:42:51;;;;;;;9.55;8.45;;;26.40;99.90;;;;;;5070191;28;20380;-63
2021/06/28 10:45:37;;;;;;;11.98;9.18;;;26.10;99.90;;;;;;5069615;28;20032;-65
2021/06/28 10:48:08;;;;;;;20.75;11.48;;;25.60;99.90;;;;;;5077763;28;20088;-62
2021/06/28 10:50:52;;;;;;;24.23;17.05;;;25.40;99.90;;;;;;5083479;28;20043;-63
2021/06/28 10:53:39;;;;;;;19.17;10.48;;;24.10;99.90;;;;;;5101360;28;20028;-62
2021/06/28 10:56:36;;;;;;;21.13;5.32;;;22.30;99.90;;;;;;5074775;28;20030;-65
2021/06/28 10:59:13;;;;;;;7.53;3.80;;;21.00;99.90;;;;;;5090514;28;20024;-64
2021/06/28 11:01:44;;;;;;;11.23;5.72;;;20.60;99.90;;;;;;5077217;28;20028;-64
2021/06/28 11:04:24;;;;;;;12.85;8.60;;;20.50;99.90;;;;;;5089547;28;20039;-65
2021/06/28 11:06:59;;;;;;;21.98;10.68;;;20.50;99.90;;;;;;5073148;28;20024;-64
2021/06/28 11:09:37;;;;;;;16.20;10.10;;;20.70;99.90;;;;;;5084817;28;20446;-64
2021/06/28 11:12:16;;;;;;;20.25;13.00;;;20.90;99.90;;;;;;5069230;28;20029;-63
2021/06/28 11:14:42;;;;;;;27.08;14.93;;;21.20;99.90;;;;;;5083678;28;20045;-64
2021/06/28 11:17:15;;;;;;;19.48;16.17;;;21.40;99.90;;;;;;5088788;28;20408;-63
2021/06/28 11:19:49;;;;;;;21.50;15.50;;;21.70;99.90;;;;;;5079228;28;20077;-60
2021/06/28 11:22:27;;;;;;;22.42;15.95;;;22.00;99.90;;;;;;5102947;28;20483;-63
2021/06/28 11:24:58;;;;;;;19.30;12.98;;;22.30;99.90;;;;;;5095980;28;20044;-62
2021/06/28 11:27:24;;;;;;;17.52;10.88;;;22.60;99.90;;;;;;5069890;28;20120;-63
2021/06/28 11:29:53;;;;;;;17.27;8.48;;;23.00;99.90;;;;;;5092786;28;20094;-62
2021/06/28 11:32:21;;;;;;;15.48;8.02;;;23.20;99.90;;;;;;5087199;28;20410;-63
2021/06/28 11:34:46;;;;;;;10.75;8.18;;;23.50;99.90;;;;;;5072441;28;20475;-62
2021/06/28 11:37:12;;;;;;;13.27;11.18;;;23.70;99.90;;;;;;5052237;28;20034;-62
2021/06/28 11:39:53;;;;;;;14.63;11.95;;;24.10;99.90;;;;;;5059390;28;20016;-61
2021/06/28 11:42:26;;;;;;;7.95;6.70;;;24.30;99.90;;;;;;5053246;28;20111;-63
2021/06/28 11:44:57;;;;;;;7.72;6.95;;;24.60;99.90;;;;;;5071882;28;20028;-63
2021/06/28 11:48:01;;;;;;;14.90;10.23;;;24.80;99.90;;;;;;5077623;28;20403;-64
2021/06/28 11:50:38;;;;;;;10.38;7.85;;;25.00;99.90;;;;;;5028194;28;20027;-64
2021/06/28 11:53:09;;;;;;;12.63;7.75;;;25.50;99.90;;;;;;5075057;28;20254;-64
2021/06/28 11:55:39;;;;;;;10.45;7.43;;;25.50;99.90;;;;;;5096915;28;20016;-64
2021/06/28 11:58:05;;;;;;;9.40;8.18;;;25.30;99.90;;;;;;5080529;28;20487;-64
2021/06/28 12:00:31;;;;;;;10.15;8.55;;;25.20;99.90;;;;;;5076467;28;20012;-64
2021/06/28 12:03:26;;;;;;;10.63;8.02;;;25.00;99.90;;;;;;5098959;28;20088;-62
2021/06/28 12:05:52;;;;;;;9.27;8.38;;;25.10;99.90;;;;;;5094369;28;20028;-63
2021/06/28 12:08:25;;;;;;;15.25;8.95;;;25.30;99.90;;;;;;5094708;28;20036;-60
2021/06/28 12:11:00;;;;;;;10.40;8.47;;;25.50;99.90;;;;;;5062626;28;20028;-63
2021/06/28 12:13:35;;;;;;;15.32;10.30;;;25.20;99.90;;;;;;5076984;28;20036;-63
2021/06/28 12:16:18;;;;;;;8.63;7.68;;;25.00;99.90;;;;;;5073614;28;20043;-63
2021/06/28 12:18:43;;;;;;;9.43;8.52;;;24.90;99.90;;;;;;5077147;28;20070;-61
2021/06/28 12:21:09;;;;;;;12.63;9.45;;;24.90;99.90;;;;;;5076109;28;20488;-62
2021/06/28 12:23:35;;;;;;;12.77;9.70;;;24.90;99.90;;;;;;5100724;28;20047;-63
2021/06/28 12:26:11;;;;;;;13.57;8.95;;;24.60;99.90;;;;;;5059724;28;20097;-63
2021/06/28 12:28:37;;;;;;;12.25;9.68;;;24.30;99.90;;;;;;5096526;28;20047;-64
2021/06/28 12:31:12;;;;;;;11.68;10.48;;;24.10;99.90;;;;;;5043370;28;20392;-64
2021/06/28 12:33:38;;;;;;;9.68;8.40;;;23.80;99.90;;;;;;5079310;28;20028;-63
2021/06/28 12:36:04;;;;;;;8.23;7.43;;;23.70;99.90;;;;;;5073508;28;20038;-62